Time;durP1;ratioP1;P1;durP2;ratioP2;P2;SDS_P1;SDS_P2;PMS_P1;PMS_P2;Temp;Humidity;BMP_temperature;BMP_pressure;BME280_temperature;BME280_humidity;BME280_pressure;Samples;Min_cycle;Max_cycle;Signal;HPM_P1;HPM_P2
2021/05/11 00:01:35;;;;;;;10.25;4.38;;;;;;;18.95;54.24;99655.88;5041084;27;96849;-78
2021/05/11 00:04:01;;;;;;;9.10;4.57;;;;;;;19.08;53.83;99649.56;5057857;27;101536;-78
2021/05/11 00:06:26;;;;;;;8.43;4.40;;;;;;;19.06;53.74;99646.22;5058447;27;101157;-78
2021/05/11 00:08:52;;;;;;;9.52;4.45;;;;;;;18.91;54.09;99648.28;5057924;27;96557;-78
2021/05/11 00:11:18;;;;;;;8.43;5.15;;;;;;;18.92;54.07;99645.50;5054828;27;96918;-78
2021/05/11 00:13:43;;;;;;;10.95;4.95;;;;;;;18.81;54.24;99634.84;5037178;27;100991;-78
2021/05/11 00:16:09;;;;;;;9.82;4.57;;;;;;;18.77;54.19;99647.56;5056988;27;101274;-78
2021/05/11 00:18:35;;;;;;;9.15;4.47;;;;;;;18.55;54.47;99634.22;5041328;27;96686;-77
2021/05/11 00:21:01;;;;;;;7.82;4.03;;;;;;;18.57;54.35;99640.25;5042559;27;97074;-78
2021/05/11 00:23:26;;;;;;;5.97;4.00;;;;;;;18.63;54.50;99634.47;5041390;27;101845;-78
2021/05/11 00:25:52;;;;;;;8.63;4.13;;;;;;;18.69;54.30;99643.78;5040489;27;100889;-78
2021/05/11 00:28:18;;;;;;;8.77;4.22;;;;;;;18.55;54.37;99631.56;5024250;27;96605;-77
2021/05/11 00:30:43;;;;;;;7.97;4.05;;;;;;;18.48;54.41;99630.34;5076284;27;96532;-78
2021/05/11 00:33:09;;;;;;;7.88;4.03;;;;;;;18.52;54.64;99634.44;5041203;27;101161;-78
2021/05/11 00:35:34;;;;;;;10.55;4.60;;;;;;;18.45;54.42;99626.13;5058141;27;97870;-78
2021/05/11 00:38:00;;;;;;;8.38;4.43;;;;;;;18.51;54.62;99635.44;5024228;27;96552;-78
2021/05/11 00:40:25;;;;;;;7.22;4.90;;;;;;;18.46;54.04;99621.66;5058449;27;96618;-78
2021/05/11 00:42:51;;;;;;;13.02;5.00;;;;;;;18.47;54.35;99633.94;5057120;27;97851;-78
2021/05/11 00:45:16;;;;;;;9.30;4.20;;;;;;;18.37;54.85;99631.19;5058630;27;98021;-78
2021/05/11 00:47:42;;;;;;;6.78;4.35;;;;;;;18.26;54.75;99631.16;5040479;27;96501;-78
2021/05/11 00:50:08;;;;;;;9.85;4.75;;;;;;;18.29;54.78;99623.78;5024793;27;96841;-78
2021/05/11 00:52:34;;;;;;;15.13;4.50;;;;;;;18.21;54.86;99623.56;5057489;27;98443;-78
2021/05/11 00:55:01;;;;;;;10.45;4.32;;;;;;;18.17;54.89;99621.25;5040300;27;101354;-77
2021/05/11 00:57:26;;;;;;;9.10;5.88;;;;;;;18.17;54.95;99618.59;5041139;27;96767;-78
2021/05/11 00:59:53;;;;;;;8.23;4.50;;;;;;;18.25;54.84;99624.16;5057302;27;97151;-78
2021/05/11 01:02:19;;;;;;;6.18;3.80;;;;;;;18.21;54.51;99625.34;5023346;27;101678;-78
2021/05/11 01:04:45;;;;;;;9.45;4.72;;;;;;;18.07;55.03;99616.63;5057108;27;97910;-78
2021/05/11 01:07:10;;;;;;;10.68;4.93;;;;;;;18.09;54.95;99617.38;5038558;27;96973;-78
2021/05/11 01:09:36;;;;;;;9.70;4.38;;;;;;;17.99;55.27;99607.56;5038854;27;96961;-77
2021/05/11 01:12:02;;;;;;;10.15;4.25;;;;;;;17.97;54.97;99598.84;5037605;27;101765;-78
2021/05/11 01:14:28;;;;;;;9.93;3.72;;;;;;;17.84;55.14;99594.47;5021263;27;101556;-78
2021/05/11 01:16:56;;;;;;;8.00;4.88;;;;;;;17.79;54.91;99587.81;5053763;27;97093;-78
2021/05/11 01:24:55;;;;;;;8.80;4.15;;;;;;;17.57;55.92;99599.16;5054107;27;101358;-77
2021/05/11 01:27:36;;;;;;;7.85;4.15;;;;;;;17.51;56.21;99600.50;5039283;27;96719;-78
2021/05/11 01:49:10;;;;;;;9.75;4.60;;;;;;;17.52;55.75;99594.22;5055311;27;96899;-77
2021/05/11 02:10:34;;;;;;;8.52;3.92;;;;;;;17.34;56.58;99569.06;5038128;27;96756;-78
2021/05/11 02:23:29;;;;;;;8.13;4.20;;;;;;;17.14;56.51;99555.44;5057439;27;96480;-78
2021/05/11 02:25:59;;;;;;;10.85;4.85;;;;;;;17.22;55.87;99552.25;5036293;27;99900;-78
2021/05/11 02:28:24;;;;;;;8.05;3.85;;;;;;;17.18;56.42;99550.75;5037147;27;101988;-79
2021/05/11 02:30:51;;;;;;;9.48;3.95;;;;;;;17.22;56.30;99554.91;5036299;27;96787;-78
2021/05/11 02:33:17;;;;;;;11.65;4.72;;;;;;;16.93;56.77;99528.72;5036921;27;96887;-79
2021/05/11 02:35:43;;;;;;;7.78;4.28;;;;;;;17.02;56.63;99542.25;5035952;27;101249;-79
2021/05/11 02:38:09;;;;;;;7.32;3.47;;;;;;;17.02;56.90;99531.66;5018709;27;100848;-79
2021/05/11 02:40:34;;;;;;;8.98;4.43;;;;;;;17.00;56.60;99537.03;5036436;27;96987;-78
2021/05/11 02:43:03;;;;;;;8.50;4.38;;;;;;;17.04;56.25;99524.41;5052602;27;97297;-79
2021/05/11 02:45:31;;;;;;;8.57;4.22;;;;;;;17.18;55.99;99538.34;5020293;27;101144;-79
2021/05/11 02:47:56;;;;;;;12.02;3.97;;;;;;;17.12;56.28;99533.50;5036001;27;100741;-79
2021/05/11 02:50:29;;;;;;;7.82;3.95;;;;;;;17.05;56.28;99536.72;5036755;27;97176;-78
2021/05/11 02:52:55;;;;;;;9.40;4.20;;;;;;;16.90;56.39;99531.59;5053648;27;96607;-79
2021/05/11 02:55:22;;;;;;;6.88;3.70;;;;;;;16.86;56.34;99543.34;5036580;27;100836;-78
2021/05/11 02:57:48;;;;;;;8.82;4.65;;;;;;;16.89;56.43;99539.63;5036211;27;101149;-79
2021/05/11 03:00:16;;;;;;;8.77;4.00;;;;;;;16.80;56.28;99530.53;5036264;27;97441;-79
2021/05/11 03:02:43;;;;;;;6.35;3.47;;;;;;;16.91;56.40;99538.56;5053434;27;97077;-79
2021/05/11 03:05:09;;;;;;;7.68;4.00;;;;;;;16.87;56.00;99515.91;5035559;27;101069;-79
2021/05/11 03:07:34;;;;;;;11.50;4.32;;;;;;;16.68;56.52;99518.16;5053616;27;98034;-79
2021/05/11 03:10:00;;;;;;;8.05;3.63;;;;;;;16.87;56.19;99530.94;5035556;27;97285;-79
2021/05/11 03:12:26;;;;;;;9.85;3.58;;;;;;;16.79;56.04;99536.81;5036758;27;96993;-79
2021/05/11 03:14:51;;;;;;;7.28;3.35;;;;;;;16.82;55.92;99528.63;5052597;27;98297;-78
2021/05/11 03:17:17;;;;;;;11.35;3.50;;;;;;;16.90;55.86;99523.63;5036435;27;101108;-79
2021/05/11 03:19:43;;;;;;;8.07;4.15;;;;;;;16.75;55.70;99529.97;5053109;27;96966;-78
2021/05/11 03:22:08;;;;;;;7.72;3.30;;;;;;;16.59;56.66;99524.94;5018689;27;97620;-78
2021/05/11 03:24:39;;;;;;;7.70;2.72;;;;;;;16.57;56.18;99510.13;5035220;27;100547;-79
2021/05/11 03:27:05;;;;;;;9.00;4.13;;;;;;;16.72;56.40;99532.84;5035489;27;101293;-79
2021/05/11 03:29:31;;;;;;;8.85;3.85;;;;;;;16.70;55.45;99511.78;5036227;27;96965;-78
2021/05/11 03:31:57;;;;;;;8.77;4.05;;;;;;;16.90;55.05;99520.09;5051560;27;96945;-78
2021/05/11 03:34:22;;;;;;;8.88;4.13;;;;;;;16.75;55.86;99525.56;5035977;27;101218;-78
2021/05/11 03:36:48;;;;;;;6.50;3.17;;;;;;;16.74;55.26;99523.84;5018882;27;100997;-79
2021/05/11 03:39:14;;;;;;;10.18;3.63;;;;;;;16.79;55.28;99518.25;5052711;27;96473;-78
2021/05/11 03:41:43;;;;;;;7.68;3.40;;;;;;;16.76;55.12;99507.88;5052895;27;96862;-78
2021/05/11 03:44:15;;;;;;;9.80;4.13;;;;;;;16.95;54.65;99518.81;5018650;27;101542;-78
2021/05/11 03:46:41;;;;;;;;;;;;;;;16.83;55.00;99518.88;5054172;27;101519;-78
2021/05/11 03:49:07;;;;;;;10.27;4.30;;;;;;;16.84;55.05;99518.78;5035262;27;97391;-79
2021/05/11 03:51:33;;;;;;;9.38;3.97;;;;;;;16.81;55.02;99511.03;5039790;27;97257;-78
2021/05/11 03:53:59;;;;;;;11.55;4.78;;;;;;;16.79;54.33;99489.09;5055485;27;101509;-78
2021/05/11 03:56:26;;;;;;;9.75;4.53;;;;;;;16.94;53.96;99514.47;5056369;27;98340;-79
2021/05/11 03:58:52;;;;;;;9.15;4.50;;;;;;;16.84;54.33;99496.69;5022032;27;96720;-79
2021/05/11 04:01:17;;;;;;;11.15;5.55;;;;;;;16.77;54.38;99491.00;5056319;27;97022;-78
2021/05/11 04:03:43;;;;;;;10.93;6.47;;;;;;;17.06;53.99;99501.28;5039228;27;101222;-78
2021/05/11 04:06:09;;;;;;;11.20;6.88;;;;;;;17.01;53.80;99503.44;5055847;27;98475;-78
2021/05/11 04:08:54;;;;;;;9.40;4.53;;;;;;;16.95;53.88;99487.00;5022438;27;96610;-78
2021/05/11 04:16:27;;;;;;;13.30;4.53;;;;;;;17.13;53.34;99489.25;5055874;27;99364;-79
2021/05/11 04:18:53;;;;;;;12.93;4.30;;;;;;;17.21;53.08;99484.22;5055607;27;97016;-78
2021/05/11 04:21:20;;;;;;;11.85;4.22;;;;;;;17.11;52.93;99469.97;5038704;27;97303;-79
2021/05/11 04:23:47;;;;;;;10.50;4.53;;;;;;;17.30;52.75;99488.00;5022126;27;101251;-79
2021/05/11 04:26:13;;;;;;;12.73;4.32;;;;;;;17.42;52.75;99485.28;5021082;27;100414;-79
2021/05/11 04:28:40;;;;;;;9.68;4.47;;;;;;;17.50;52.38;99479.38;5055844;27;96579;-79
2021/05/11 04:31:07;;;;;;;8.63;4.25;;;;;;;17.60;52.29;99476.91;5021755;27;96857;-79
2021/05/11 04:33:33;;;;;;;12.38;4.63;;;;;;;17.72;52.12;99475.09;5055685;27;101301;-79
2021/05/11 04:35:59;;;;;;;8.00;4.28;;;;;;;17.76;51.61;99460.63;5073462;27;97436;-79
2021/05/11 04:38:25;;;;;;;8.60;4.80;;;;;;;18.04;51.38;99483.25;5021296;27;97237;-79
2021/05/11 04:40:51;;;;;;;6.47;3.70;;;;;;;18.05;51.55;99475.16;5021571;27;97701;-78
2021/05/11 04:43:18;;;;;;;7.40;4.78;;;;;;;18.22;51.26;99471.19;5055084;27;99262;-79
2021/05/11 04:45:44;;;;;;;11.50;4.18;;;;;;;18.34;50.71;99474.66;5038460;27;100749;-79
2021/05/11 04:48:10;;;;;;;11.20;4.22;;;;;;;18.39;50.27;99493.75;5021158;27;97108;-79
2021/05/11 04:50:36;;;;;;;9.38;4.95;;;;;;;18.50;50.35;99476.94;5021920;27;96897;-79
2021/05/11 04:53:02;;;;;;;7.63;4.55;;;;;;;18.67;50.24;99475.56;5037557;27;101709;-79
2021/05/11 04:55:27;;;;;;;12.73;4.85;;;;;;;18.83;49.67;99473.41;5022013;27;101162;-79
2021/05/11 04:57:53;;;;;;;7.43;4.53;;;;;;;19.02;49.15;99480.69;5073851;27;96528;-78
2021/05/11 05:00:19;;;;;;;9.25;4.90;;;;;;;18.88;49.49;99484.50;5054632;27;96985;-79
2021/05/11 05:02:46;;;;;;;7.50;4.10;;;;;;;19.09;49.35;99473.09;5037184;27;101335;-79
2021/05/11 05:05:13;;;;;;;6.65;4.35;;;;;;;19.21;49.13;99475.56;5054623;27;97856;-79
2021/05/11 05:07:39;;;;;;;8.68;4.28;;;;;;;19.43;48.55;99468.44;5055490;27;96630;-79
2021/05/11 05:10:06;;;;;;;7.72;4.25;;;;;;;19.40;48.33;99448.28;5037344;27;96978;-79
2021/05/11 05:12:32;;;;;;;8.02;4.68;;;;;;;19.66;48.54;99462.06;5054626;27;97710;-78
2021/05/11 05:14:57;;;;;;;9.48;3.90;;;;;;;19.88;47.89;99457.53;5054387;27;101185;-79
2021/05/11 05:17:23;;;;;;;12.93;5.05;;;;;;;20.11;47.42;99458.22;5037810;27;97269;-79
2021/05/11 05:19:49;;;;;;;9.93;4.10;;;;;;;20.38;47.04;99459.41;5038326;27;96856;-79
2021/05/11 05:22:14;;;;;;;10.68;4.55;;;;;;;20.60;46.67;99435.25;5053942;27;100830;-79
2021/05/11 05:24:50;;;;;;;9.00;4.22;;;;;;;21.05;45.99;99449.88;5021149;27;100933;-79
2021/05/11 05:29:42;;;;;;;10.23;4.45;;;;;;;22.11;43.73;99472.91;5054755;27;96752;-79
2021/05/11 05:32:08;;;;;;;7.30;4.07;;;;;;;22.41;43.13;99462.97;5036950;27;101257;-79
2021/05/11 05:34:34;;;;;;;12.57;5.22;;;;;;;22.67;42.73;99450.56;5038118;27;97924;-79
2021/05/11 05:36:59;;;;;;;9.27;4.30;;;;;;;23.15;41.94;99451.22;5020699;27;96671;-80
2021/05/11 05:39:38;;;;;;;11.18;6.82;;;;;;;23.33;41.51;99448.50;5054805;27;96962;-79
2021/05/11 05:42:04;;;;;;;11.18;4.60;;;;;;;24.11;40.46;99443.19;5055514;27;98124;-79
2021/05/11 05:44:30;;;;;;;8.15;4.10;;;;;;;24.09;40.14;99429.97;5054909;27;100901;-79
2021/05/11 05:46:56;;;;;;;11.07;3.95;;;;;;;24.71;39.96;99426.16;5055117;27;97290;-79
2021/05/11 05:49:23;;;;;;;9.27;4.70;;;;;;;24.96;39.15;99427.03;5072481;27;97537;-79
2021/05/11 05:51:50;;;;;;;9.68;4.03;;;;;;;25.32;38.35;99406.09;5053887;27;101041;-79
2021/05/11 05:54:16;;;;;;;7.65;4.10;;;;;;;25.97;37.43;99414.03;5054676;27;101006;-79
2021/05/11 05:56:42;;;;;;;7.75;3.97;;;;;;;26.25;36.92;99428.91;5055159;27;96594;-80
2021/05/11 05:59:07;;;;;;;13.73;5.00;;;;;;;26.24;36.81;99421.84;5053424;27;96840;-79
2021/05/11 06:01:34;;;;;;;10.40;4.05;;;;;;;26.49;36.42;99419.88;5053107;27;97946;-80
2021/05/11 06:04:12;;;;;;;8.77;4.13;;;;;;;26.32;36.21;99406.50;5031218;27;101312;-79
2021/05/11 06:06:39;;;;;;;11.05;3.38;;;;;;;26.31;36.15;99428.22;5072817;27;97214;-79
2021/05/11 06:09:15;;;;;;;8.77;4.18;;;;;;;26.55;35.92;99395.81;5067475;27;96912;-78
2021/05/11 06:12:00;;;;;;;7.95;4.20;;;;;;;27.05;35.52;99421.41;5056888;27;101678;-80
2021/05/11 06:14:44;;;;;;;6.63;3.63;;;;;;;27.09;35.53;99421.88;5077174;27;98866;-80
2021/05/11 06:17:20;;;;;;;14.73;4.05;;;;;;;27.85;35.01;99416.50;5056188;27;97576;-80
2021/05/11 06:19:47;;;;;;;7.93;3.92;;;;;;;28.48;33.99;99414.22;5076372;27;96601;-79
2021/05/11 06:22:14;;;;;;;7.25;3.67;;;;;;;28.87;33.60;99411.94;5046299;27;101104;-80
2021/05/11 06:24:40;;;;;;;6.32;3.42;;;;;;;29.25;33.06;99414.41;5063806;27;97900;-80
2021/05/11 06:27:07;;;;;;;5.28;3.80;;;;;;;29.12;32.28;99427.81;5044663;27;97214;-80
2021/05/11 06:29:36;;;;;;;8.07;3.33;;;;;;;29.21;32.47;99391.53;5068394;27;96948;-80
2021/05/11 06:32:03;;;;;;;9.32;6.22;;;;;;;28.94;32.42;99419.28;5064433;27;97849;-80
2021/05/11 06:34:28;;;;;;;7.75;3.15;;;;;;;29.25;32.28;99405.47;5061537;27;98474;-80
2021/05/11 06:36:54;;;;;;;6.72;2.88;;;;;;;29.60;31.74;99411.75;5046075;27;97121;-80
2021/05/11 06:39:20;;;;;;;7.80;3.47;;;;;;;29.94;31.79;99405.56;5047868;27;97393;-80
2021/05/11 06:41:49;;;;;;;10.32;3.83;;;;;;;29.97;31.70;99407.03;5052153;27;97976;-80
2021/05/11 06:44:38;;;;;;;7.05;3.50;;;;;;;29.86;31.71;99415.72;5053552;27;101110;-80
2021/05/11 06:50:11;;;;;;;5.70;2.97;;;;;;;30.62;30.60;99416.50;5048246;27;96957;-79
2021/05/11 06:55:07;;;;;;;8.07;2.97;;;;;;;30.78;30.72;99401.75;5059298;27;101662;-79
2021/05/11 06:57:33;;;;;;;23.10;14.30;;;;;;;30.79;30.56;99400.72;5044147;27;97349;-81
2021/05/11 06:59:59;;;;;;;7.70;2.83;;;;;;;31.13;30.05;99393.47;5063005;27;97034;-81
2021/05/11 07:02:24;;;;;;;6.88;3.75;;;;;;;31.20;29.82;99397.00;5043513;27;101160;-82
2021/05/11 07:04:53;;;;;;;5.55;2.80;;;;;;;31.54;29.79;99393.28;5044261;27;100777;-79
2021/05/11 07:07:20;;;;;;;5.78;3.33;;;;;;;31.58;29.77;99399.09;5060036;27;97254;-82
2021/05/11 07:14:58;;;;;;;9.50;3.10;;;;;;;32.41;28.99;99383.00;5055209;27;101201;-82
2021/05/11 07:17:25;;;;;;;4.90;2.92;;;;;;;32.26;28.99;99371.59;5036157;27;97042;-84
2021/05/11 07:19:52;;;;;;;9.77;3.10;;;;;;;32.10;29.58;99375.63;5036556;27;96778;-83
2021/05/11 07:22:17;;;;;;;8.77;3.80;;;;;;;32.38;29.73;99369.03;5056398;27;101141;-85
2021/05/11 07:24:45;;;;;;;10.38;2.90;;;;;;;32.04;29.64;99378.38;5074478;27;98102;-84
2021/05/11 07:32:02;;;;;;;5.93;2.90;;;;;;;33.41;28.51;99376.06;5055421;27;101420;-85
2021/05/11 07:34:29;;;;;;;6.65;2.50;;;;;;;32.95;29.06;99366.38;5036228;27;101001;-85
2021/05/11 07:36:55;;;;;;;6.47;2.90;;;;;;;33.93;28.21;99357.56;5065836;27;97113;-87
2021/05/11 07:39:23;;;;;;;3.35;2.40;;;;;;;34.51;27.67;99370.66;5050078;27;96848;-85
2021/05/11 07:41:49;;;;;;;6.97;2.78;;;;;;;34.38;27.43;99368.91;5017183;27;101204;-83
2021/05/11 07:44:14;;;;;;;8.02;2.10;;;;;;;34.84;26.02;99363.91;5052283;27;97693;-84
2021/05/11 08:15:42;;;;;;;2.85;1.75;;;;;;;35.06;26.12;99354.13;5063469;27;101447;-79
2021/05/11 08:28:46;;;;;;;6.57;1.92;;;;;;;35.30;24.91;99352.25;5049734;27;96766;-78
2021/05/11 08:31:11;;;;;;;4.85;1.92;;;;;;;35.22;25.35;99362.69;5038503;27;97315;-79
2021/05/11 08:33:37;;;;;;;2.83;1.83;;;;;;;35.21;25.19;99348.22;5038026;27;101711;-78
2021/05/11 08:36:03;;;;;;;4.28;1.92;;;;;;;35.60;25.29;99343.94;5045264;27;101536;-78
2021/05/11 08:38:29;;;;;;;3.85;1.98;;;;;;;36.29;24.63;99340.47;5068430;27;97404;-79
2021/05/11 08:40:55;;;;;;;5.60;1.92;;;;;;;36.66;24.06;99343.66;5037508;27;97349;-83
2021/05/11 08:43:32;;;;;;;3.58;2.13;;;;;;;36.99;23.72;99343.91;5062759;27;97378;-80
2021/05/11 08:46:00;;;;;;;4.28;2.33;;;;;;;37.08;24.20;99348.75;5043086;27;100662;-79
2021/05/11 08:48:26;;;;;;;4.90;2.70;;;;;;;37.68;22.98;99355.41;5052421;27;97351;-80
2021/05/11 08:51:11;;;;;;;4.90;2.40;;;;;;;37.24;23.46;99338.88;5058723;27;97319;-80
2021/05/11 09:07:43;;;;;;;3.05;1.80;;;;;;;36.92;23.36;99324.97;5052781;27;101828;-83
2021/05/11 10:49:26;;;;;;;9.10;1.23;;;;;;;29.87;24.66;99272.16;5045545;27;96760;-82
2021/05/11 10:52:17;;;;;;;3.90;1.55;;;;;;;29.95;23.40;99269.28;5050769;27;97148;-82
2021/05/11 10:54:56;;;;;;;8.45;1.48;;;;;;;30.00;23.85;99269.50;5041135;27;101319;-81
2021/05/11 11:00:32;;;;;;;3.70;1.23;;;;;;;30.06;23.39;99272.44;5040835;27;96814;-84
2021/05/11 11:03:20;;;;;;;5.30;1.50;;;;;;;30.00;23.39;99261.38;5043154;27;96848;-81
2021/05/11 11:05:49;;;;;;;4.85;1.17;;;;;;;30.08;23.37;99264.94;5007275;27;101436;-82
2021/05/11 11:08:35;;;;;;;5.90;1.48;;;;;;;30.06;24.08;99261.63;5031692;27;101573;-79
2021/05/11 11:11:16;;;;;;;2.67;1.08;;;;;;;30.18;23.05;99266.22;5062310;27;96767;-82
2021/05/11 11:13:52;;;;;;;1.65;1.10;;;;;;;30.09;23.17;99259.31;5054280;27;96855;-81
2021/05/11 11:16:18;;;;;;;2.30;0.98;;;;;;;29.97;23.16;99259.09;5035121;27;101614;-82
2021/05/11 11:18:44;;;;;;;1.90;1.10;;;;;;;29.91;23.34;99254.50;5036194;27;97745;-85
2021/05/11 11:23:49;;;;;;;4.00;1.10;;;;;;;30.00;23.39;99255.97;5051962;27;97040;-82
2021/05/11 11:26:29;;;;;;;3.17;1.15;;;;;;;30.01;22.57;99254.94;5051233;27;101378;-80
2021/05/11 11:29:21;;;;;;;1.80;1.23;;;;;;;29.98;23.87;99257.22;5036277;27;97983;-84
2021/05/11 11:31:47;;;;;;;4.78;1.42;;;;;;;30.01;23.63;99236.00;5047106;27;97416;-83
2021/05/11 11:34:38;;;;;;;3.78;1.38;;;;;;;29.92;23.17;99230.97;5052753;27;97132;-84
2021/05/11 11:37:08;;;;;;;5.00;1.10;;;;;;;29.93;23.77;99243.47;5037652;27;101960;-81
2021/05/11 11:39:35;;;;;;;2.45;1.10;;;;;;;29.94;23.97;99234.31;5019214;27;101144;-80
2021/05/11 11:42:06;;;;;;;5.43;1.27;;;;;;;29.97;24.97;99231.22;5047444;27;96827;-80
2021/05/11 11:44:35;;;;;;;;;;;;;;;30.06;25.01;99229.16;5056423;27;97264;-81
2021/05/11 11:47:09;;;;;;;4.53;1.30;;;;;;;30.04;24.67;99210.41;5056737;27;101812;-81
2021/05/11 11:49:38;;;;;;;5.72;1.38;;;;;;;30.10;24.27;99222.28;5072181;27;101102;-82
2021/05/11 11:52:11;;;;;;;4.97;1.42;;;;;;;30.10;24.49;99220.41;5057118;27;96682;-82
2021/05/11 11:54:42;;;;;;;3.58;1.30;;;;;;;30.02;25.19;99217.91;5073409;27;97012;-81
2021/05/11 12:00:05;;;;;;;7.70;1.40;;;;;;;29.91;26.28;99216.63;5055818;27;98379;-84
2021/05/11 12:02:53;;;;;;;9.65;1.77;;;;;;;29.84;26.53;99209.53;5055909;27;96688;-82
2021/05/11 12:05:20;;;;;;;3.13;1.58;;;;;;;29.88;26.41;99186.47;5045150;27;97271;-84
2021/05/11 12:10:20;;;;;;;5.90;1.48;;;;;;;29.91;26.01;99208.50;5053761;27;101425;-83
2021/05/11 12:12:46;;;;;;;4.65;1.55;;;;;;;29.84;26.29;99196.00;5055994;27;97243;-83
2021/05/11 12:15:13;;;;;;;4.95;1.23;;;;;;;29.76;26.00;99189.75;5039672;27;97082;-85
2021/05/11 12:22:04;;;;;;;4.82;1.67;;;;;;;29.85;26.12;99194.97;5202247;22;104446;-85
2021/05/11 12:24:34;;;;;;;6.18;1.33;;;;;;;29.76;26.02;99203.28;4926461;28;96936;-84
2021/05/11 12:27:12;;;;;;;11.35;2.22;;;;;;;29.96;26.10;99181.69;4955215;28;97160;-85
2021/05/11 12:29:42;;;;;;;4.93;1.48;;;;;;;29.95;26.19;99187.28;4954956;28;101330;-85
2021/05/11 12:32:07;;;;;;;4.38;1.20;;;;;;;29.97;26.38;99194.16;4934511;28;100999;-86
2021/05/11 12:34:33;;;;;;;4.55;1.63;;;;;;;29.93;25.41;99183.94;4935646;28;96810;-85
2021/05/11 12:37:01;;;;;;;4.38;1.20;;;;;;;29.78;25.83;99184.13;4919405;28;97089;-84
2021/05/11 12:42:20;;;;;;;5.03;1.70;;;;;;;29.84;25.39;99191.41;4936799;28;101383;-86
2021/05/11 12:45:06;;;;;;;3.60;1.45;;;;;;;29.78;25.87;99171.44;4919539;28;97226;-85
2021/05/11 12:47:50;;;;;;;6.20;1.42;;;;;;;30.01;25.46;99172.94;4935121;28;96686;-85
2021/05/11 12:50:21;;;;;;;4.90;1.30;;;;;;;30.02;25.24;99166.50;4934276;28;97908;-84
2021/05/11 12:52:50;;;;;;;6.97;1.67;;;;;;;30.03;25.70;99172.75;4936297;28;97054;-85
2021/05/11 12:59:22;;;;;;;11.18;1.60;;;;;;;29.99;25.82;99173.16;4879957;28;96913;-85
2021/05/11 13:20:18;;;;;;;4.65;1.52;;;;;;;30.01;27.35;99141.31;4871244;28;97608;-84
2021/05/11 13:25:28;;;;;;;8.02;1.52;;;;;;;29.97;26.45;99142.78;4879732;28;101448;-82
2021/05/11 13:28:13;;;;;;;5.95;2.00;;;;;;;29.91;26.91;99138.19;4879568;28;96901;-83
2021/05/11 13:35:36;;;;;;;3.25;1.52;;;;;;;30.12;25.47;99139.03;4920994;28;98165;-88
2021/05/11 13:38:03;;;;;;;5.55;3.00;;;;;;;30.18;24.85;99130.09;4939831;28;97421;-87
2021/05/11 13:40:29;;;;;;;4.45;2.60;;;;;;;30.26;24.64;99131.81;4919021;28;98233;-86
2021/05/11 13:42:55;;;;;;;6.15;2.90;;;;;;;30.11;24.69;99131.97;4921504;28;101303;-83
2021/05/11 13:45:20;;;;;;;5.18;2.83;;;;;;;30.04;25.03;99131.13;4937911;28;98634;-85
2021/05/11 13:51:01;;;;;;;6.32;3.05;;;;;;;30.35;25.95;99130.53;4907219;28;97181;-90
2021/05/11 13:53:28;;;;;;;4.95;2.50;;;;;;;30.35;25.95;99134.06;4915876;28;101059;-82
2021/05/11 14:03:50;;;;;;;5.15;2.80;;;;;;;30.25;25.35;99122.81;4952642;28;98494;-81
2021/05/11 14:06:16;;;;;;;6.53;3.00;;;;;;;30.32;25.56;99112.03;4934250;28;97708;-81
2021/05/11 14:08:41;;;;;;;6.32;2.65;;;;;;;30.32;25.31;99117.44;4917952;28;97623;-83
2021/05/11 14:11:07;;;;;;;9.07;2.72;;;;;;;30.28;25.42;99121.56;4932705;28;97292;-82
2021/05/11 14:13:33;;;;;;;5.47;2.90;;;;;;;30.32;24.97;99115.56;4948789;28;100918;-83
2021/05/11 14:15:58;;;;;;;7.32;2.13;;;;;;;30.25;25.61;99127.41;4934096;28;101247;-90
2021/05/11 14:18:24;;;;;;;3.15;1.35;;;;;;;30.21;25.41;99117.00;4918753;28;97172;-82
2021/05/11 14:20:49;;;;;;;3.25;1.60;;;;;;;30.18;25.55;99117.38;4935208;28;96925;-82
2021/05/11 14:23:15;;;;;;;8.05;1.88;;;;;;;30.15;25.37;99108.88;4925022;28;101059;-80
2021/05/11 14:25:41;;;;;;;6.07;1.50;;;;;;;30.25;25.51;99106.59;4970905;28;97263;-85
2021/05/11 14:28:06;;;;;;;7.10;1.58;;;;;;;30.22;25.25;99115.13;4929868;28;97432;-85
2021/05/11 14:30:33;;;;;;;7.10;1.55;;;;;;;30.18;26.19;99103.03;4929739;28;97459;-85
2021/05/11 14:32:58;;;;;;;8.15;1.55;;;;;;;30.21;25.73;99110.75;4959730;28;98035;-84
2021/05/11 14:35:24;;;;;;;9.07;2.00;;;;;;;30.22;26.21;99109.72;4940954;28;101638;-85
2021/05/11 14:37:50;;;;;;;3.47;1.35;;;;;;;30.10;26.29;99109.47;4960345;28;97261;-85
2021/05/11 14:40:16;;;;;;;5.55;1.77;;;;;;;30.21;26.18;99102.66;4941718;28;96936;-81
2021/05/11 14:42:42;;;;;;;4.22;1.42;;;;;;;30.16;26.40;99119.47;4961043;28;98382;-85
2021/05/11 14:45:10;;;;;;;8.45;1.30;;;;;;;30.29;26.68;99102.44;4944586;28;101364;-85
2021/05/11 14:47:36;;;;;;;7.88;1.67;;;;;;;30.26;26.19;99104.75;4940802;28;97155;-83
2021/05/11 14:50:03;;;;;;;5.03;1.40;;;;;;;30.17;25.63;99109.50;4951589;28;97005;-85
2021/05/11 14:52:28;;;;;;;4.97;1.83;;;;;;;30.10;25.78;99104.06;4927318;28;101259;-85
2021/05/11 14:54:54;;;;;;;3.60;1.33;;;;;;;29.99;25.62;99100.13;4936691;28;101274;-85
2021/05/11 14:57:20;;;;;;;329.88;63.17;;;;;;;30.03;25.40;99095.13;4932946;28;97343;-79
2021/05/11 14:59:45;;;;;;;8.18;1.85;;;;;;;29.99;26.06;99105.53;4934031;28;96908;-83
2021/05/11 15:02:14;;;;;;;3.97;1.73;;;;;;;29.99;26.12;99108.25;4934064;28;98684;-80
2021/05/11 15:04:40;;;;;;;5.10;1.58;;;;;;;30.01;26.55;99110.72;4934356;28;101774;-79
2021/05/11 15:07:06;;;;;;;4.43;1.90;;;;;;;30.11;26.91;99126.56;4965929;28;97376;-84
2021/05/11 15:09:31;;;;;;;6.55;1.98;;;;;;;30.01;26.17;99099.91;4951421;28;97268;-81
2021/05/11 15:11:57;;;;;;;3.10;1.40;;;;;;;30.01;26.90;99091.78;4969532;28;98487;-80
2021/05/11 15:14:22;;;;;;;8.95;1.85;;;;;;;29.99;26.60;99094.72;4952905;28;98245;-81
2021/05/11 15:16:57;;;;;;;4.90;1.70;;;;;;;29.98;27.01;99100.31;4937022;28;97055;-83
2021/05/11 15:19:22;;;;;;;7.20;1.83;;;;;;;29.96;27.10;99083.44;4969242;28;96614;-79
2021/05/11 15:21:50;;;;;;;4.88;1.75;;;;;;;29.88;26.62;99098.03;4953170;28;97220;-79
2021/05/11 15:24:15;;;;;;;5.97;1.95;;;;;;;29.87;27.05;99096.34;4954109;28;100917;-87
2021/05/11 15:26:41;;;;;;;2.95;1.52;;;;;;;29.90;27.77;99090.53;4940193;28;98482;-85
2021/05/11 15:29:07;;;;;;;3.75;1.52;;;;;;;29.90;27.61;99100.50;4917242;28;97296;-85
2021/05/11 15:31:32;;;;;;;13.30;1.80;;;;;;;29.92;27.50;99090.34;4931770;28;100115;-84
2021/05/11 15:33:58;;;;;;;5.68;1.80;;;;;;;29.86;27.67;99091.16;4950585;28;98355;-86
2021/05/11 15:36:24;;;;;;;7.53;2.03;;;;;;;29.92;28.01;99084.91;4916234;28;96643;-84
2021/05/11 15:38:50;;;;;;;4.72;1.75;;;;;;;29.88;28.05;99097.22;4933883;28;96952;-85
2021/05/11 15:41:15;;;;;;;2.92;1.60;;;;;;;29.92;28.29;99091.16;4933985;28;101064;-85
2021/05/11 15:43:41;;;;;;;4.82;1.80;;;;;;;29.93;28.03;99086.56;4933132;28;97864;-86
2021/05/11 15:46:07;;;;;;;3.17;2.20;;;;;;;29.85;27.98;99092.22;4948429;28;97442;-83
2021/05/11 15:48:32;;;;;;;8.68;1.65;;;;;;;29.87;28.33;99090.13;4950761;28;97022;-84
2021/05/11 15:50:58;;;;;;;4.40;1.75;;;;;;;29.84;28.22;99096.75;4936326;28;101559;-81
2021/05/11 15:53:24;;;;;;;4.63;2.10;;;;;;;29.68;28.09;99098.00;4952112;28;101343;-82
2021/05/11 15:55:50;;;;;;;8.02;2.28;;;;;;;29.51;28.76;99093.97;4936844;28;96903;-83
2021/05/11 15:58:17;;;;;;;10.55;2.50;;;;;;;29.41;29.08;99105.19;4936709;28;97122;-83
2021/05/11 16:00:46;;;;;;;5.05;1.55;;;;;;;29.29;28.89;99118.47;4948785;28;98452;-83
2021/05/11 16:03:12;;;;;;;15.15;3.15;;;;;;;29.26;29.35;99099.91;4936516;28;101830;-82
2021/05/11 16:05:39;;;;;;;7.22;1.98;;;;;;;29.16;29.56;99106.75;4924733;28;96886;-83
2021/05/11 16:08:09;;;;;;;3.95;2.38;;;;;;;29.04;29.41;99104.63;4920979;28;97163;-84
2021/05/11 16:10:35;;;;;;;;;;;;;;;28.93;30.03;99098.94;4950944;28;101676;-83
2021/05/11 16:13:01;;;;;;;4.20;1.85;;;;;;;28.83;30.12;99102.84;4935776;28;101151;-83
2021/05/11 16:15:26;;;;;;;6.85;2.20;;;;;;;28.77;30.40;99103.66;4935828;28;96594;-79
2021/05/11 16:17:52;;;;;;;4.75;2.17;;;;;;;28.66;30.62;99106.91;4936324;28;97023;-76
2021/05/11 16:20:18;;;;;;;5.78;2.15;;;;;;;28.66;30.65;99102.31;4952560;28;97995;-78
2021/05/11 16:22:43;;;;;;;9.82;2.22;;;;;;;28.58;31.12;99104.34;4967466;28;97345;-76